Time;durP1;ratioP1;P1;durP2;ratioP2;P2;SDS_P1;SDS_P2;PMS_P1;PMS_P2;Temp;Humidity;BMP_temperature;BMP_pressure;BME280_temperature;BME280_humidity;BME280_pressure;Samples;Min_cycle;Max_cycle;Signal;HPM_P1;HPM_P2
2023/12/02 00:03:50;;;;;;;6.13;4.77;;;;;;;;;;10416712;28;20931;-76
2023/12/02 00:08:51;;;;;;;12.27;5.03;;;;;;;;;;10370798;28;20223;-75
2023/12/02 00:13:52;;;;;;;9.30;4.37;;;;;;;;;;10378249;28;20211;-77
2023/12/02 00:18:54;;;;;;;10.40;3.73;;;;;;;;;;10411662;28;20206;-75
2023/12/02 00:23:55;;;;;;;9.07;4.73;;;;;;;;;;10407129;28;20708;-75
2023/12/02 00:28:56;;;;;;;7.57;4.47;;;;;;;;;;10382425;28;20221;-75
2023/12/02 00:33:57;;;;;;;11.73;4.53;;;;;;;;;;10421585;28;20225;-76
2023/12/02 00:38:58;;;;;;;5.17;3.60;;;;;;;;;;10400321;28;20242;-77
2023/12/02 00:43:59;;;;;;;8.40;4.10;;;;;;;;;;10390001;28;20210;-76
2023/12/02 00:49:00;;;;;;;6.77;4.10;;;;;;;;;;10372995;28;20229;-74
2023/12/02 00:54:01;;;;;;;5.87;3.60;;;;;;;;;;10384595;28;20210;-75
2023/12/02 00:59:02;;;;;;;5.37;3.80;;;;;;;;;;10396624;28;20234;-76
2023/12/02 01:04:03;;;;;;;6.73;3.67;;;;;;;;;;10389322;28;20291;-77
2023/12/02 01:09:05;;;;;;;4.53;3.23;;;;;;;;;;10349642;28;21415;-75
2023/12/02 01:14:06;;;;;;;8.00;3.97;;;;;;;;;;10379009;28;20219;-75
2023/12/02 01:19:07;;;;;;;6.90;3.73;;;;;;;;;;10406941;28;20836;-75
2023/12/02 01:24:09;;;;;;;6.73;3.10;;;;;;;;;;10408306;28;20240;-77
2023/12/02 01:29:10;;;;;;;9.47;3.30;;;;;;;;;;10401039;28;20313;-76
2023/12/02 01:34:11;;;;;;;4.70;2.97;;;;;;;;;;10381559;28;20207;-76
2023/12/02 01:39:12;;;;;;;7.33;2.80;;;;;;;;;;10356070;28;20305;-75
2023/12/02 01:44:14;;;;;;;3.97;3.50;;;;;;;;;;10401706;28;20234;-76
2023/12/02 01:49:15;;;;;;;4.33;3.03;;;;;;;;;;10423515;28;20214;-76
2023/12/02 01:54:17;;;;;;;3.80;2.80;;;;;;;;;;10435423;28;20321;-77
2023/12/02 01:59:19;;;;;;;6.10;2.70;;;;;;;;;;10373527;28;20219;-75
2023/12/02 02:04:20;;;;;;;4.53;2.70;;;;;;;;;;10386662;28;20662;-75
2023/12/02 02:09:21;;;;;;;4.50;2.97;;;;;;;;;;10395023;28;20213;-76
2023/12/02 02:14:22;;;;;;;4.25;2.60;;;;;;;;;;10390139;28;20284;-76
2023/12/02 02:19:23;;;;;;;2.93;2.60;;;;;;;;;;10381358;28;20719;-77
2023/12/02 02:24:24;;;;;;;5.10;2.87;;;;;;;;;;10401497;28;20978;-77
2023/12/02 02:29:25;;;;;;;3.65;2.22;;;;;;;;;;10373130;28;20215;-76
2023/12/02 02:34:26;;;;;;;3.87;1.97;;;;;;;;;;10388698;28;22653;-76
2023/12/02 02:39:27;;;;;;;4.07;2.63;;;;;;;;;;10411131;28;20276;-75
2023/12/02 02:44:28;;;;;;;4.27;2.43;;;;;;;;;;10390429;28;20809;-75
2023/12/02 02:49:29;;;;;;;4.70;3.60;;;;;;;;;;10354384;28;20215;-77
2023/12/02 02:54:30;;;;;;;6.80;3.10;;;;;;;;;;10363711;28;20321;-74
2023/12/02 02:59:31;;;;;;;5.73;4.00;;;;;;;;;;10357044;28;20717;-78
2023/12/02 03:04:33;;;;;;;6.93;3.30;;;;;;;;;;10384409;28;20276;-77
2023/12/02 03:09:34;;;;;;;8.83;4.53;;;;;;;;;;10363302;28;20694;-76
2023/12/02 03:14:37;;;;;;;6.43;3.70;;;;;;;;;;10385967;28;20230;-77
2023/12/02 03:19:38;;;;;;;7.20;3.50;;;;;;;;;;10389300;28;20242;-76
2023/12/02 03:24:40;;;;;;;5.63;3.33;;;;;;;;;;10412538;28;20219;-77
2023/12/02 03:29:40;;;;;;;6.20;3.53;;;;;;;;;;10392199;28;20214;-77
2023/12/02 03:34:41;;;;;;;3.37;3.10;;;;;;;;;;10384056;28;20337;-75
2023/12/02 03:39:42;;;;;;;5.67;3.07;;;;;;;;;;10389605;28;20719;-78
2023/12/02 03:44:43;;;;;;;4.77;3.43;;;;;;;;;;10421513;28;20246;-77
2023/12/02 03:49:45;;;;;;;3.70;3.07;;;;;;;;;;10436867;28;20338;-75
2023/12/02 03:54:46;;;;;;;3.05;2.63;;;;;;;;;;10417883;28;20241;-76
2023/12/02 03:59:49;;;;;;;3.97;2.70;;;;;;;;;;10399154;28;20211;-78
2023/12/02 04:04:50;;;;;;;3.40;2.57;;;;;;;;;;10412959;28;20242;-76
2023/12/02 04:09:51;;;;;;;5.40;3.33;;;;;;;;;;10356256;28;20762;-78
2023/12/02 04:14:52;;;;;;;4.50;3.27;;;;;;;;;;10334774;28;20797;-75
2023/12/02 04:19:53;;;;;;;5.30;3.33;;;;;;;;;;10412762;28;20305;-76
2023/12/02 04:24:54;;;;;;;4.43;3.87;;;;;;;;;;10409678;28;20305;-76
2023/12/02 04:29:55;;;;;;;3.17;2.63;;;;;;;;;;10398606;28;20215;-75
2023/12/02 04:34:56;;;;;;;4.93;2.72;;;;;;;;;;10399185;28;20218;-75
2023/12/02 04:39:57;;;;;;;4.43;3.50;;;;;;;;;;10394630;28;20225;-76
2023/12/02 04:44:58;;;;;;;4.72;3.33;;;;;;;;;;10396381;28;20224;-75
2023/12/02 04:49:59;;;;;;;4.50;3.87;;;;;;;;;;10407259;28;20206;-76
2023/12/02 04:55:00;;;;;;;8.80;2.33;;;;;;;;;;10372760;28;20578;-75
2023/12/02 05:00:02;;;;;;;7.17;3.97;;;;;;;;;;10404476;28;20310;-77
2023/12/02 05:05:04;;;;;;;4.35;3.22;;;;;;;;;;10415356;28;20272;-77
2023/12/02 05:10:05;;;;;;;4.00;3.10;;;;;;;;;;10404193;28;20203;-79
2023/12/02 05:15:09;;;;;;;3.38;3.00;;;;;;;;;;10425702;28;20206;-77
2023/12/02 05:20:12;;;;;;;4.23;3.47;;;;;;;;;;10359068;28;20874;-77
2023/12/02 05:25:13;;;;;;;6.77;3.73;;;;;;;;;;10338169;28;20223;-78
2023/12/02 05:30:14;;;;;;;5.47;3.20;;;;;;;;;;10357304;28;20210;-77
2023/12/02 05:35:15;;;;;;;5.07;3.38;;;;;;;;;;10356859;28;20233;-78
2023/12/02 05:40:17;;;;;;;5.55;3.10;;;;;;;;;;10352332;28;20219;-76
2023/12/02 05:45:18;;;;;;;5.63;3.72;;;;;;;;;;10354669;28;20311;-75
2023/12/02 05:50:19;;;;;;;3.33;2.97;;;;;;;;;;10371544;28;20204;-76
2023/12/02 05:55:21;;;;;;;5.30;3.22;;;;;;;;;;10354479;28;20240;-76
2023/12/02 06:00:23;;;;;;;5.75;3.83;;;;;;;;;;10353577;28;20249;-78
2023/12/02 06:05:25;;;;;;;2.47;2.22;;;;;;;;;;10352460;28;21175;-77
2023/12/02 06:10:26;;;;;;;3.58;3.28;;;;;;;;;;10353394;28;20220;-77
2023/12/02 06:15:27;;;;;;;8.80;4.93;;;;;;;;;;10368238;28;22620;-78
2023/12/02 06:20:28;;;;;;;7.37;4.30;;;;;;;;;;10375808;28;20681;-75
2023/12/02 06:25:29;;;;;;;7.43;4.93;;;;;;;;;;10360473;28;20240;-79
2023/12/02 06:30:31;;;;;;;4.87;3.97;;;;;;;;;;10377398;28;20219;-77
2023/12/02 06:35:32;;;;;;;10.57;4.70;;;;;;;;;;10368851;28;20234;-75
2023/12/02 06:40:33;;;;;;;9.47;4.37;;;;;;;;;;10419783;28;20219;-76
2023/12/02 06:45:34;;;;;;;7.17;4.10;;;;;;;;;;10377007;28;20234;-77
2023/12/02 06:50:35;;;;;;;8.67;5.13;;;;;;;;;;10402812;28;20538;-76
2023/12/02 06:55:36;;;;;;;7.90;5.07;;;;;;;;;;10392880;28;20243;-76
2023/12/02 07:00:37;;;;;;;5.63;4.00;;;;;;;;;;10387791;28;20219;-76
2023/12/02 07:05:38;;;;;;;3.37;3.03;;;;;;;;;;10414623;28;20226;-77
2023/12/02 07:10:40;;;;;;;5.53;3.87;;;;;;;;;;10390696;28;20242;-76
2023/12/02 07:15:42;;;;;;;3.80;2.97;;;;;;;;;;10387692;28;20312;-76
2023/12/02 07:20:43;;;;;;;3.47;3.17;;;;;;;;;;10404163;28;20353;-79
2023/12/02 07:25:44;;;;;;;3.60;2.70;;;;;;;;;;10375943;28;20233;-76
2023/12/02 07:30:45;;;;;;;3.03;2.67;;;;;;;;;;10388606;28;20215;-77
2023/12/02 07:35:46;;;;;;;4.07;2.97;;;;;;;;;;10417674;28;20645;-75
2023/12/02 07:40:47;;;;;;;3.77;2.57;;;;;;;;;;10385512;28;20210;-76
2023/12/02 07:45:48;;;;;;;4.50;2.90;;;;;;;;;;10386543;28;20947;-77
2023/12/02 07:50:49;;;;;;;3.90;2.53;;;;;;;;;;10414583;28;20223;-76
2023/12/02 07:55:50;;;;;;;2.95;2.30;;;;;;;;;;10390260;28;20221;-77
2023/12/02 08:00:51;;;;;;;5.13;2.70;;;;;;;;;;10371943;28;20708;-76
2023/12/02 08:05:52;;;;;;;3.80;3.40;;;;;;;;;;10391321;28;20219;-76
2023/12/02 08:10:55;;;;;;;5.50;3.35;;;;;;;;;;10367417;28;20634;-77
2023/12/02 08:15:56;;;;;;;5.97;4.23;;;;;;;;;;10396883;28;20309;-74
2023/12/02 08:20:57;;;;;;;5.60;3.75;;;;;;;;;;10432965;28;20221;-75
2023/12/02 08:25:58;;;;;;;5.57;3.43;;;;;;;;;;10423298;28;20231;-75
2023/12/02 08:30:59;;;;;;;3.10;2.83;;;;;;;;;;10378086;28;20223;-75
2023/12/02 08:36:00;;;;;;;4.70;3.47;;;;;;;;;;10390138;28;21093;-76
2023/12/02 08:41:01;;;;;;;4.03;3.30;;;;;;;;;;10420501;28;20834;-76
2023/12/02 08:46:02;;;;;;;3.03;2.58;;;;;;;;;;10424131;28;20218;-78
2023/12/02 08:51:03;;;;;;;3.43;3.03;;;;;;;;;;10410543;28;20226;-76
2023/12/02 08:56:05;;;;;;;4.90;3.08;;;;;;;;;;10428828;28;20210;-75
2023/12/02 09:01:06;;;;;;;2.78;2.58;;;;;;;;;;10425693;28;20277;-79
2023/12/02 09:06:07;;;;;;;2.30;2.10;;;;;;;;;;10417225;28;20245;-77
2023/12/02 09:11:08;;;;;;;2.13;2.00;;;;;;;;;;10407701;28;20231;-76
2023/12/02 09:16:19;;;;;;;5.30;1.97;;;;;;;;;;10421185;28;20234;-78
2023/12/02 09:21:22;;;;;;;1.90;1.43;;;;;;;;;;10434578;28;20696;-76
2023/12/02 09:26:34;;;;;;;6.00;2.05;;;;;;;;;;10423049;28;20601;-79
2023/12/02 09:31:35;;;;;;;2.00;1.90;;;;;;;;;;10404552;28;20219;-75
2023/12/02 09:36:39;;;;;;;2.17;2.07;;;;;;;;;;10413180;28;20838;-76
2023/12/02 09:41:48;;;;;;;2.28;2.08;;;;;;;;;;10416102;28;20241;-75
2023/12/02 09:47:03;;;;;;;2.42;2.20;;;;;;;;;;10411107;28;20269;-75
2023/12/02 09:52:16;;;;;;;2.47;2.37;;;;;;;;;;10445195;28;20314;-76
2023/12/02 09:57:36;;;;;;;2.42;2.22;;;;;;;;;;10432249;28;20270;-75
2023/12/02 10:02:57;;;;;;;3.13;2.83;;;;;;;;;;10402707;28;20304;-75
2023/12/02 10:08:03;;;;;;;3.17;2.83;;;;;;;;;;10439333;28;20307;-75
2023/12/02 10:13:25;;;;;;;3.10;2.67;;;;;;;;;;10413809;28;20207;-76
2023/12/02 10:18:30;;;;;;;3.20;2.90;;;;;;;;;;10429712;28;20246;-75
2023/12/02 10:23:43;;;;;;;2.33;2.17;;;;;;;;;;10444594;28;20265;-78
2023/12/02 10:28:52;;;;;;;2.93;2.73;;;;;;;;;;10414225;28;20223;-76
2023/12/02 10:33:53;;;;;;;4.77;3.50;;;;;;;;;;10433722;28;20218;-76
2023/12/02 10:39:03;;;;;;;3.50;3.10;;;;;;;;;;10412302;28;20318;-74
2023/12/02 10:44:06;;;;;;;2.63;2.43;;;;;;;;;;10422994;28;20268;-76
2023/12/02 10:49:08;;;;;;;3.08;2.85;;;;;;;;;;10445779;28;20207;-75
2023/12/02 10:54:12;;;;;;;2.63;2.40;;;;;;;;;;10445712;28;20214;-77
2023/12/02 10:59:13;;;;;;;2.85;2.67;;;;;;;;;;10405043;28;20231;-75
2023/12/02 11:04:20;;;;;;;2.60;2.50;;;;;;;;;;10444150;28;20265;-77
2023/12/02 11:09:38;;;;;;;3.17;2.90;;;;;;;;;;10422113;28;20211;-77
2023/12/02 11:14:41;;;;;;;5.72;2.35;;;;;;;;;;10395593;28;20357;-77
2023/12/02 11:19:42;;;;;;;2.50;2.30;;;;;;;;;;10436131;28;20217;-77
2023/12/02 11:24:43;;;;;;;2.27;2.17;;;;;;;;;;10431392;28;20253;-76
2023/12/02 11:29:52;;;;;;;3.20;2.15;;;;;;;;;;10424911;28;20211;-76
2023/12/02 11:34:59;;;;;;;2.90;2.80;;;;;;;;;;10450528;28;20234;-74
2023/12/02 11:40:12;;;;;;;3.35;2.45;;;;;;;;;;10430481;28;20222;-74
2023/12/02 11:45:19;;;;;;;3.13;3.00;;;;;;;;;;10391539;28;20623;-77
2023/12/02 11:50:26;;;;;;;4.30;2.97;;;;;;;;;;10425387;28;20210;-78
2023/12/02 11:55:32;;;;;;;2.05;1.95;;;;;;;;;;10445996;28;21373;-79
2023/12/02 12:00:51;;;;;;;3.00;2.75;;;;;;;;;;10400762;28;20238;-79
2023/12/02 12:05:58;;;;;;;2.53;2.15;;;;;;;;;;10387193;28;20222;-77
2023/12/02 12:11:00;;;;;;;2.10;1.77;;;;;;;;;;10368203;28;20215;-79
2023/12/02 12:16:01;;;;;;;6.40;1.80;;;;;;;;;;10376184;28;20229;-78
2023/12/02 12:21:03;;;;;;;2.13;1.70;;;;;;;;;;10401745;28;20237;-78
2023/12/02 12:26:05;;;;;;;1.87;1.70;;;;;;;;;;10421723;28;20211;-76
2023/12/02 12:31:10;;;;;;;3.73;3.37;;;;;;;;;;10422633;28;20249;-76
2023/12/02 12:36:11;;;;;;;5.17;3.80;;;;;;;;;;10412392;28;20211;-77
2023/12/02 12:41:12;;;;;;;3.25;2.95;;;;;;;;;;10406378;28;20231;-73
2023/12/02 12:46:13;;;;;;;3.37;2.73;;;;;;;;;;10412296;28;20303;-74
2023/12/02 12:51:17;;;;;;;5.03;4.07;;;;;;;;;;10409520;28;20214;-74
2023/12/02 12:56:21;;;;;;;2.72;2.63;;;;;;;;;;10415068;28;20225;-74
2023/12/02 13:01:26;;;;;;;2.53;2.38;;;;;;;;;;10424924;28;20301;-73
2023/12/02 13:06:34;;;;;;;2.85;2.25;;;;;;;;;;10395135;28;20234;-75
2023/12/02 13:11:57;;;;;;;3.77;3.37;;;;;;;;;;10425203;28;20280;-74
2023/12/02 13:17:00;;;;;;;4.17;2.53;;;;;;;;;;10428082;28;21034;-74
2023/12/02 13:22:01;;;;;;;3.78;2.85;;;;;;;;;;10447967;28;20215;-74
2023/12/02 13:27:02;;;;;;;4.43;3.25;;;;;;;;;;10438663;28;20218;-75
2023/12/02 13:32:04;;;;;;;5.63;2.78;;;;;;;;;;10430904;28;20237;-75
2023/12/02 13:37:07;;;;;;;6.38;2.85;;;;;;;;;;10430777;28;20268;-74
2023/12/02 13:42:13;;;;;;;4.43;3.92;;;;;;;;;;10441432;28;20211;-74
2023/12/02 13:47:14;;;;;;;4.75;4.10;;;;;;;;;;10437044;28;20218;-74
2023/12/02 13:52:34;;;;;;;7.03;3.78;;;;;;;;;;10438154;28;20220;-75
2023/12/02 13:57:41;;;;;;;9.20;4.93;;;;;;;;;;10421012;28;20210;-74
2023/12/02 14:02:51;;;;;;;6.80;5.20;;;;;;;;;;10451849;28;20659;-75
2023/12/02 14:07:52;;;;;;;5.18;4.38;;;;;;;;;;10411146;28;20751;-74
2023/12/02 14:13:05;;;;;;;8.63;6.03;;;;;;;;;;10400880;28;20207;-74
2023/12/02 14:18:06;;;;;;;10.20;5.27;;;;;;;;;;10401165;28;20230;-76
2023/12/02 14:23:34;;;;;;;6.10;4.45;;;;;;;;;;10438383;28;20731;-74
2023/12/02 14:28:35;;;;;;;7.72;3.83;;;;;;;;;;10438277;28;20318;-74
2023/12/02 14:33:44;;;;;;;7.37;3.90;;;;;;;;;;10440022;28;20297;-74
2023/12/02 14:38:45;;;;;;;8.37;4.53;;;;;;;;;;10453161;28;20246;-79
2023/12/02 14:44:00;;;;;;;5.20;3.17;;;;;;;;;;10440974;28;21417;-75
2023/12/02 14:49:02;;;;;;;6.03;3.67;;;;;;;;;;10437567;28;20214;-78
2023/12/02 14:54:03;;;;;;;4.67;4.23;;;;;;;;;;10440651;28;20242;-80
2023/12/02 14:59:04;;;;;;;8.32;5.32;;;;;;;;;;10448487;28;20306;-75
2023/12/02 15:04:07;;;;;;;5.53;4.22;;;;;;;;;;10418676;28;20230;-77
2023/12/02 15:09:08;;;;;;;6.93;4.83;;;;;;;;;;10430927;28;20223;-75
2023/12/02 15:14:09;;;;;;;5.30;4.80;;;;;;;;;;10400294;28;20218;-75
2023/12/02 15:19:10;;;;;;;8.18;4.57;;;;;;;;;;10434112;28;20237;-75
2023/12/02 15:24:11;;;;;;;9.07;4.82;;;;;;;;;;10433288;28;20243;-75
2023/12/02 15:29:12;;;;;;;5.05;4.22;;;;;;;;;;10432912;28;20219;-75
2023/12/02 15:34:13;;;;;;;5.53;4.45;;;;;;;;;;10418036;28;20214;-75
2023/12/02 15:39:15;;;;;;;4.53;4.05;;;;;;;;;;10386705;28;20226;-74
2023/12/02 15:44:16;;;;;;;9.25;4.15;;;;;;;;;;10426724;28;20243;-75
2023/12/02 15:49:22;;;;;;;4.88;3.80;;;;;;;;;;10403366;28;20234;-74
2023/12/02 15:54:23;;;;;;;11.60;6.10;;;;;;;;;;10375464;28;20207;-75
2023/12/02 15:59:24;;;;;;;8.32;4.95;;;;;;;;;;10428004;28;20211;-74
2023/12/02 16:04:26;;;;;;;8.15;4.25;;;;;;;;;;10382571;28;20257;-75
2023/12/02 16:09:27;;;;;;;7.47;4.65;;;;;;;;;;10426090;28;20219;-74
2023/12/02 16:14:29;;;;;;;11.60;5.85;;;;;;;;;;10432355;28;20215;-74
2023/12/02 16:19:31;;;;;;;10.05;5.47;;;;;;;;;;10438625;28;20249;-75
2023/12/02 16:24:32;;;;;;;7.45;5.18;;;;;;;;;;10425119;28;20758;-76
2023/12/02 16:29:33;;;;;;;10.02;4.97;;;;;;;;;;10430012;28;20202;-75
2023/12/02 16:34:34;;;;;;;10.48;5.25;;;;;;;;;;10444053;28;20237;-75
2023/12/02 16:39:35;;;;;;;11.50;6.00;;;;;;;;;;10435442;28;20206;-74
2023/12/02 16:44:37;;;;;;;15.00;8.02;;;;;;;;;;10407999;28;20329;-75
2023/12/02 16:49:38;;;;;;;17.05;7.43;;;;;;;;;;10441991;28;20227;-75
2023/12/02 16:54:39;;;;;;;15.25;8.43;;;;;;;;;;10398308;28;20222;-75
2023/12/02 16:59:45;;;;;;;13.90;7.43;;;;;;;;;;10393658;28;20221;-74
2023/12/02 17:04:46;;;;;;;14.68;7.72;;;;;;;;;;10435213;28;20223;-75
2023/12/02 17:09:48;;;;;;;13.23;5.93;;;;;;;;;;10429966;28;20232;-74
2023/12/02 17:14:49;;;;;;;14.17;5.70;;;;;;;;;;10434163;28;20657;-74
2023/12/02 17:19:51;;;;;;;9.68;5.60;;;;;;;;;;10415630;28;20218;-76
2023/12/02 17:24:52;;;;;;;18.10;8.80;;;;;;;;;;10418248;28;20226;-76
2023/12/02 17:29:53;;;;;;;16.25;8.52;;;;;;;;;;10430278;28;20210;-75
2023/12/02 17:34:54;;;;;;;21.03;9.80;;;;;;;;;;10415985;28;20206;-75
2023/12/02 17:39:55;;;;;;;9.48;5.45;;;;;;;;;;10429656;28;20214;-75
2023/12/02 17:44:56;;;;;;;9.38;4.90;;;;;;;;;;10423747;28;20780;-75
2023/12/02 17:49:57;;;;;;;13.17;4.87;;;;;;;;;;10388270;28;20295;-74
2023/12/02 17:54:58;;;;;;;12.07;5.97;;;;;;;;;;10435074;28;20216;-76
2023/12/02 18:00:00;;;;;;;14.13;6.07;;;;;;;;;;10415793;28;20225;-74
2023/12/02 18:05:02;;;;;;;8.20;5.03;;;;;;;;;;10394173;28;20235;-75
2023/12/02 18:10:04;;;;;;;10.25;5.90;;;;;;;;;;10432644;28;20203;-75
2023/12/02 18:15:05;;;;;;;11.13;6.13;;;;;;;;;;10457616;28;20238;-77
2023/12/02 18:20:06;;;;;;;10.47;5.23;;;;;;;;;;10437344;28;20215;-76
2023/12/02 18:25:07;;;;;;;7.43;4.47;;;;;;;;;;10444001;28;20301;-78
2023/12/02 18:30:08;;;;;;;8.75;4.88;;;;;;;;;;10436667;28;20685;-75
2023/12/02 18:35:09;;;;;;;7.30;4.63;;;;;;;;;;10433684;28;20237;-75
2023/12/02 18:40:11;;;;;;;9.30;4.68;;;;;;;;;;10437815;28;20210;-75
2023/12/02 18:45:12;;;;;;;7.40;4.40;;;;;;;;;;10436561;28;20203;-75
2023/12/02 18:50:13;;;;;;;5.63;3.43;;;;;;;;;;10440929;28;20210;-75
2023/12/02 18:55:14;;;;;;;10.40;5.17;;;;;;;;;;10426542;28;20183;-77
2023/12/02 19:00:15;;;;;;;7.17;4.73;;;;;;;;;;10419986;28;20591;-74
2023/12/02 19:05:16;;;;;;;8.73;5.23;;;;;;;;;;10427467;28;20225;-78
2023/12/02 19:10:17;;;;;;;10.03;5.07;;;;;;;;;;10431812;28;20206;-77
2023/12/02 19:15:19;;;;;;;14.70;7.57;;;;;;;;;;10437181;28;21576;-74
2023/12/02 19:20:20;;;;;;;18.33;7.80;;;;;;;;;;10424303;28;20237;-76
2023/12/02 19:25:22;;;;;;;11.60;7.23;;;;;;;;;;10433641;28;20219;-73
2023/12/02 19:30:23;;;;;;;16.40;7.90;;;;;;;;;;10421941;28;20920;-77
2023/12/02 19:35:24;;;;;;;15.05;7.18;;;;;;;;;;10401616;28;21489;-72
2023/12/02 19:40:25;;;;;;;12.45;5.90;;;;;;;;;;10392950;28;21063;-73
2023/12/02 19:45:27;;;;;;;13.80;6.93;;;;;;;;;;10411126;28;20632;-73
2023/12/02 19:50:27;;;;;;;18.60;6.78;;;;;;;;;;10375978;28;20226;-73
2023/12/02 19:55:29;;;;;;;14.77;6.05;;;;;;;;;;10393052;28;20222;-75
2023/12/02 20:00:30;;;;;;;9.77;6.03;;;;;;;;;;10409710;28;20773;-74
2023/12/02 20:05:31;;;;;;;13.38;7.88;;;;;;;;;;10416929;28;20218;-73
2023/12/02 20:10:32;;;;;;;18.05;7.20;;;;;;;;;;10420113;28;20223;-72
2023/12/02 20:15:33;;;;;;;9.63;6.50;;;;;;;;;;10409291;28;20306;-74
2023/12/02 20:20:34;;;;;;;12.50;5.65;;;;;;;;;;10387783;28;20864;-72
2023/12/02 20:25:35;;;;;;;16.43;6.97;;;;;;;;;;10405873;28;20338;-73
2023/12/02 20:30:36;;;;;;;15.13;7.10;;;;;;;;;;10376037;28;20226;-73
2023/12/02 20:35:37;;;;;;;15.63;7.53;;;;;;;;;;10417050;28;20312;-74
2023/12/02 20:40:38;;;;;;;19.50;7.80;;;;;;;;;;10411531;28;20348;-74
2023/12/02 20:45:40;;;;;;;42.33;20.30;;;;;;;;;;10426224;28;20222;-72
2023/12/02 20:50:41;;;;;;;28.00;11.90;;;;;;;;;;10411033;28;20214;-74
2023/12/02 20:55:42;;;;;;;18.95;9.23;;;;;;;;;;10398829;28;21318;-74
2023/12/02 21:00:43;;;;;;;13.70;7.70;;;;;;;;;;10408929;28;20214;-74
2023/12/02 21:05:45;;;;;;;21.00;8.90;;;;;;;;;;10413910;28;20310;-74
2023/12/02 21:10:46;;;;;;;20.20;9.90;;;;;;;;;;10385695;28;20440;-73
2023/12/02 21:15:47;;;;;;;16.83;7.85;;;;;;;;;;10447203;28;20218;-73
2023/12/02 21:20:48;;;;;;;17.73;9.17;;;;;;;;;;10397940;28;20214;-73
2023/12/02 21:25:49;;;;;;;18.77;8.93;;;;;;;;;;10423884;28;20253;-73
2023/12/02 21:30:50;;;;;;;21.43;9.90;;;;;;;;;;10418432;28;20301;-73
2023/12/02 21:35:56;;;;;;;22.48;9.43;;;;;;;;;;10418372;28;20316;-74
2023/12/02 21:40:57;;;;;;;17.95;8.68;;;;;;;;;;10417495;28;20210;-76
2023/12/02 21:45:58;;;;;;;20.08;8.52;;;;;;;;;;10437334;28;20745;-73
2023/12/02 21:50:59;;;;;;;17.50;8.35;;;;;;;;;;10431020;28;20219;-74
2023/12/02 21:56:01;;;;;;;18.48;8.23;;;;;;;;;;10392284;28;20247;-74
2023/12/02 22:01:06;;;;;;;22.52;9.20;;;;;;;;;;10368613;28;20770;-76
2023/12/02 22:06:26;;;;;;;15.90;8.45;;;;;;;;;;10385705;28;20292;-74
2023/12/02 22:11:28;;;;;;;12.55;7.03;;;;;;;;;;10425130;28;20301;-78
2023/12/02 22:16:32;;;;;;;13.55;6.90;;;;;;;;;;10425338;28;20272;-75
2023/12/02 22:21:34;;;;;;;13.35;6.63;;;;;;;;;;10434913;28;20779;-75
2023/12/02 22:26:35;;;;;;;14.88;6.97;;;;;;;;;;10432691;28;20294;-75
2023/12/02 22:31:37;;;;;;;13.60;5.55;;;;;;;;;;10437343;28;21654;-74
2023/12/02 22:36:39;;;;;;;8.05;5.13;;;;;;;;;;10428168;28;20226;-74
2023/12/02 22:41:40;;;;;;;10.67;5.80;;;;;;;;;;10433403;28;20210;-75
2023/12/02 22:46:45;;;;;;;10.68;5.45;;;;;;;;;;10399621;28;20660;-74
2023/12/02 22:51:46;;;;;;;7.82;4.65;;;;;;;;;;10375596;28;20223;-75
2023/12/02 22:56:47;;;;;;;12.10;4.72;;;;;;;;;;10388936;28;20215;-75
2023/12/02 23:01:49;;;;;;;10.95;5.03;;;;;;;;;;10427797;28;20236;-75
2023/12/02 23:06:50;;;;;;;10.10;5.13;;;;;;;;;;10430571;28;20230;-77
2023/12/02 23:11:51;;;;;;;7.57;5.18;;;;;;;;;;10433096;28;20302;-75
2023/12/02 23:16:52;;;;;;;9.90;5.05;;;;;;;;;;10431922;28;20709;-74
2023/12/02 23:21:54;;;;;;;6.30;4.63;;;;;;;;;;10432272;28;20236;-74
2023/12/02 23:26:54;;;;;;;5.47;3.95;;;;;;;;;;10428882;28;20225;-74
2023/12/02 23:31:56;;;;;;;6.50;4.18;;;;;;;;;;10429315;28;20227;-78
2023/12/02 23:36:57;;;;;;;5.45;3.97;;;;;;;;;;10433565;28;20203;-73
2023/12/02 23:42:01;;;;;;;8.40;4.65;;;;;;;;;;10412477;28;20715;-75
2023/12/02 23:47:02;;;;;;;6.38;3.97;;;;;;;;;;10419642;28;20779;-75
2023/12/02 23:52:04;;;;;;;8.02;4.75;;;;;;;;;;10426851;28;20229;-75
2023/12/02 23:57:05;;;;;;;6.28;4.68;;;;;;;;;;10426178;28;20217;-73
